Time;durP1;ratioP1;P1;durP2;ratioP2;P2;SDS_P1;SDS_P2;PMS_P1;PMS_P2;Temp;Humidity;BMP_temperature;BMP_pressure;BME280_temperature;BME280_humidity;BME280_pressure;Samples;Min_cycle;Max_cycle;Signal;HPM_P1;HPM_P2
2022/11/01 00:03:01;;;;;;;;;;;18.90;53.00;;;;;;8361864;28;19923;-42
2022/11/01 00:07:02;;;;;;;;;;;18.90;53.00;;;;;;8362394;28;19921;-42
2022/11/01 00:11:03;;;;;;;;;;;18.80;53.00;;;;;;8365403;28;20289;-42
2022/11/01 00:15:04;;;;;;;;;;;18.80;53.00;;;;;;8367626;28;19913;-42
2022/11/01 00:19:04;;;;;;;;;;;18.80;53.00;;;;;;8368059;28;20442;-42
2022/11/01 00:23:05;;;;;;;;;;;18.80;53.00;;;;;;8367839;28;19996;-42
2022/11/01 00:27:05;;;;;;;;;;;18.90;53.10;;;;;;8367637;28;20377;-42
2022/11/01 00:31:06;;;;;;;;;;;18.80;53.10;;;;;;8367643;28;19916;-42
2022/11/01 00:35:06;;;;;;;;;;;18.80;53.00;;;;;;8367387;28;19923;-42
2022/11/01 00:39:11;;;;;;;;;;;18.80;53.00;;;;;;8366940;28;19921;-42
2022/11/01 00:43:11;;;;;;;;;;;18.80;53.00;;;;;;8367278;28;19921;-42
2022/11/01 00:47:12;;;;;;;;;;;18.80;53.00;;;;;;8367399;28;19986;-43
2022/11/01 00:51:12;;;;;;;;;;;18.80;53.10;;;;;;8366666;28;19921;-43
2022/11/01 00:55:13;;;;;;;;;;;18.80;53.10;;;;;;8367517;28;19929;-43
2022/11/01 00:59:13;;;;;;;;;;;18.80;53.10;;;;;;8366684;28;19920;-42
2022/11/01 01:03:14;;;;;;;;;;;18.80;53.10;;;;;;8366118;28;20305;-42
2022/11/01 01:07:14;;;;;;;;;;;18.80;53.10;;;;;;8367081;28;19916;-42
2022/11/01 01:11:15;;;;;;;;;;;18.80;53.10;;;;;;8366478;28;19927;-43
2022/11/01 01:15:15;;;;;;;;;;;18.80;53.10;;;;;;8365841;28;19918;-42
2022/11/01 01:19:16;;;;;;;;;;;18.80;53.10;;;;;;8365986;28;19931;-42
2022/11/01 01:23:16;;;;;;;;;;;18.80;53.10;;;;;;8364955;28;20010;-43
2022/11/01 01:27:17;;;;;;;;;;;18.80;53.10;;;;;;8365596;28;19920;-44
2022/11/01 01:31:17;;;;;;;;;;;18.70;53.00;;;;;;8365746;28;19963;-43
2022/11/01 01:35:18;;;;;;;;;;;18.80;53.10;;;;;;8365927;28;19927;-43
2022/11/01 01:39:18;;;;;;;;;;;18.70;53.10;;;;;;8365037;28;20292;-43
2022/11/01 01:43:19;;;;;;;;;;;18.70;53.10;;;;;;8365473;28;19921;-43
2022/11/01 01:47:33;;;;;;;;;;;18.80;53.10;;;;;;8365586;28;19924;-43
2022/11/01 01:51:33;;;;;;;;;;;18.80;53.20;;;;;;8364799;28;19962;-44
2022/11/01 01:55:36;;;;;;;;;;;18.70;53.10;;;;;;8364976;28;19936;-43
2022/11/01 01:59:37;;;;;;;;;;;18.70;53.10;;;;;;8364988;28;19921;-43
2022/11/01 02:03:39;;;;;;;;;;;18.80;53.10;;;;;;8364203;28;19927;-43
2022/11/01 02:07:39;;;;;;;;;;;18.70;53.10;;;;;;8332387;28;19917;-42
2022/11/01 02:11:40;;;;;;;;;;;18.70;53.10;;;;;;8358773;28;19923;-43
2022/11/01 02:15:53;;;;;;;;;;;18.70;53.10;;;;;;8363972;28;19928;-43
2022/11/01 02:20:12;;;;;;;;;;;18.70;53.10;;;;;;8364292;28;20373;-43
2022/11/01 02:24:22;;;;;;;;;;;18.70;53.10;;;;;;8363804;28;19966;-44
2022/11/01 02:28:25;;;;;;;;;;;18.70;53.10;;;;;;8364282;28;19920;-43
2022/11/01 02:32:26;;;;;;;;;;;18.70;53.10;;;;;;8363639;28;19923;-43
2022/11/01 02:36:47;;;;;;;;;;;18.70;53.10;;;;;;8363455;28;19917;-43
2022/11/01 02:41:02;;;;;;;;;;;18.70;53.20;;;;;;8363683;28;19925;-43
2022/11/01 02:45:06;;;;;;;;;;;18.70;53.20;;;;;;8363495;28;20015;-42
2022/11/01 02:49:08;;;;;;;;;;;18.70;53.10;;;;;;8363519;28;20369;-43
2022/11/01 02:53:09;;;;;;;;;;;18.70;53.20;;;;;;8363761;28;19917;-43
2022/11/01 02:57:15;;;;;;;;;;;18.70;53.10;;;;;;8363008;28;19940;-43
2022/11/01 03:01:18;;;;;;;;;;;18.70;53.20;;;;;;8363269;28;19925;-43
2022/11/01 03:05:22;;;;;;;;;;;18.70;53.10;;;;;;8363398;28;19920;-43
2022/11/01 03:09:23;;;;;;;;;;;18.70;53.20;;;;;;8362865;28;19917;-42
2022/11/01 03:13:31;;;;;;;;;;;18.60;53.20;;;;;;8363354;28;19948;-43
2022/11/01 03:17:32;;;;;;;;;;;18.60;53.70;;;;;;8363331;28;19953;-42
2022/11/01 03:21:39;;;;;;;;;;;18.70;53.20;;;;;;8362574;28;19986;-43
2022/11/01 03:25:43;;;;;;;;;;;18.60;53.10;;;;;;8362974;28;19917;-42
2022/11/01 03:29:46;;;;;;;;;;;18.60;53.20;;;;;;8363102;28;19916;-44
2022/11/01 03:33:52;;;;;;;;;;;18.60;53.20;;;;;;8362803;28;19936;-43
2022/11/01 03:37:55;;;;;;;;;;;18.60;53.20;;;;;;8363197;28;19917;-43
2022/11/01 03:41:59;;;;;;;;;;;18.60;53.20;;;;;;8362868;28;19925;-44
2022/11/01 03:46:00;;;;;;;;;;;18.60;53.20;;;;;;8365759;28;19916;-43
2022/11/01 03:50:14;;;;;;;;;;;18.60;53.20;;;;;;8368999;28;19995;-43
2022/11/01 03:54:15;;;;;;;;;;;18.60;53.20;;;;;;8368517;28;19917;-42
2022/11/01 03:58:15;;;;;;;;;;;18.60;53.20;;;;;;8368978;28;19920;-42
2022/11/01 04:02:16;;;;;;;;;;;18.60;53.20;;;;;;8368486;28;19946;-43
2022/11/01 04:06:16;;;;;;;;;;;18.60;53.20;;;;;;8367981;28;20308;-43
2022/11/01 04:10:17;;;;;;;;;;;18.60;53.20;;;;;;8368646;28;20387;-43
2022/11/01 04:23:17;;;;;;;;;;;18.60;53.20;;;;;;8369349;28;19974;-43
2022/11/01 04:27:17;;;;;;;;;;;18.60;53.20;;;;;;8365284;28;19925;-42
2022/11/01 04:31:18;;;;;;;;;;;18.60;53.20;;;;;;8367706;28;20003;-42
2022/11/01 04:35:19;;;;;;;;;;;18.60;53.20;;;;;;8367556;28;20254;-42
2022/11/01 04:39:19;;;;;;;;;;;18.60;53.20;;;;;;8367271;28;20419;-42
2022/11/01 04:43:21;;;;;;;;;;;18.60;53.20;;;;;;8367405;28;20305;-43
2022/11/01 04:47:22;;;;;;;;;;;18.60;53.20;;;;;;8367391;28;19917;-43
2022/11/01 04:51:22;;;;;;;;;;;18.60;53.20;;;;;;8366691;28;20376;-43
2022/11/01 04:55:22;;;;;;;;;;;18.60;53.20;;;;;;8366743;28;20011;-43
2022/11/01 04:59:23;;;;;;;;;;;18.60;53.20;;;;;;8366989;28;19924;-43
2022/11/01 05:03:23;;;;;;;;;;;18.60;53.20;;;;;;8366158;28;19917;-42
2022/11/01 05:07:24;;;;;;;;;;;18.60;53.20;;;;;;8366865;28;20164;-43
2022/11/01 05:11:24;;;;;;;;;;;18.60;53.20;;;;;;8365910;28;19952;-43
2022/11/01 05:15:25;;;;;;;;;;;18.60;53.20;;;;;;8365936;28;19917;-44
2022/11/01 05:19:25;;;;;;;;;;;18.60;53.20;;;;;;8366419;28;20371;-43
2022/11/01 05:23:26;;;;;;;;;;;18.60;53.20;;;;;;8366281;28;19917;-43
2022/11/01 05:27:26;;;;;;;;;;;18.60;53.20;;;;;;8365651;28;19917;-43
2022/11/01 05:31:27;;;;;;;;;;;18.60;53.20;;;;;;8365806;28;19917;-44
2022/11/01 05:35:28;;;;;;;;;;;18.60;53.20;;;;;;8365721;28;20324;-43
2022/11/01 05:39:28;;;;;;;;;;;18.60;53.20;;;;;;8365296;28;19920;-42
2022/11/01 05:43:29;;;;;;;;;;;18.60;53.20;;;;;;8365370;28;19917;-43
2022/11/01 05:47:30;;;;;;;;;;;18.60;53.20;;;;;;8365394;28;19917;-43
2022/11/01 05:51:31;;;;;;;;;;;18.60;53.20;;;;;;8364673;28;19971;-43
2022/11/01 05:55:32;;;;;;;;;;;18.60;53.20;;;;;;8365201;28;20375;-44
2022/11/01 05:59:32;;;;;;;;;;;18.60;53.20;;;;;;8365354;28;19967;-43
2022/11/01 06:03:33;;;;;;;;;;;18.60;53.20;;;;;;8364426;28;19920;-43
2022/11/01 06:07:34;;;;;;;;;;;18.60;53.20;;;;;;8364182;28;19924;-43
2022/11/01 06:11:35;;;;;;;;;;;18.60;53.20;;;;;;8364588;28;19921;-43
2022/11/01 06:15:35;;;;;;;;;;;18.60;53.20;;;;;;8363886;28;19924;-43
2022/11/01 06:19:36;;;;;;;;;;;18.60;53.20;;;;;;8364900;28;19942;-43
2022/11/01 06:23:36;;;;;;;;;;;18.60;53.20;;;;;;8364125;28;19916;-43
2022/11/01 06:27:37;;;;;;;;;;;18.60;53.20;;;;;;8363741;28;20288;-43
2022/11/01 06:31:38;;;;;;;;;;;18.60;53.30;;;;;;8364098;28;20425;-43
2022/11/01 06:35:38;;;;;;;;;;;18.60;53.30;;;;;;8363796;28;19917;-44
2022/11/01 06:39:39;;;;;;;;;;;18.60;53.30;;;;;;8363375;28;20003;-44
2022/11/01 06:43:39;;;;;;;;;;;18.60;53.30;;;;;;8363800;28;19916;-44
2022/11/01 06:47:44;;;;;;;;;;;18.60;53.30;;;;;;8363651;28;20296;-43
2022/11/01 06:51:45;;;;;;;;;;;18.60;53.30;;;;;;8363136;28;19917;-43
2022/11/01 06:55:45;;;;;;;;;;;18.60;53.30;;;;;;8363505;28;20007;-44
2022/11/01 06:59:46;;;;;;;;;;;18.60;53.30;;;;;;8363586;28;19925;-42
2022/11/01 07:03:52;;;;;;;;;;;18.60;53.30;;;;;;8362917;28;19928;-44
2022/11/01 07:07:53;;;;;;;;;;;18.60;53.30;;;;;;8363278;28;19970;-45
2022/11/01 07:11:53;;;;;;;;;;;18.60;53.30;;;;;;8363215;28;20004;-43
2022/11/01 07:15:54;;;;;;;;;;;18.60;53.30;;;;;;8362628;28;20003;-44
2022/11/01 07:19:54;;;;;;;;;;;18.60;53.30;;;;;;8366605;28;19925;-43
2022/11/01 07:23:55;;;;;;;;;;;18.60;53.30;;;;;;8369757;28;19920;-42
2022/11/01 07:27:55;;;;;;;;;;;18.60;53.30;;;;;;8369191;28;20403;-44
2022/11/01 07:31:56;;;;;;;;;;;18.60;53.40;;;;;;8369715;28;19924;-42
2022/11/01 07:35:57;;;;;;;;;;;18.60;53.30;;;;;;8369516;28;19917;-43
2022/11/01 07:39:57;;;;;;;;;;;18.60;53.30;;;;;;8368945;28;19920;-43
2022/11/01 07:43:57;;;;;;;;;;;18.60;53.40;;;;;;8369419;28;19923;-45
2022/11/01 07:48:01;;;;;;;;;;;18.60;53.40;;;;;;8368644;28;19925;-43
2022/11/01 07:52:03;;;;;;;;;;;18.60;53.40;;;;;;8369095;28;19916;-43
2022/11/01 07:56:03;;;;;;;;;;;18.70;53.40;;;;;;8369076;28;19923;-43
2022/11/01 08:00:04;;;;;;;;;;;18.70;53.40;;;;;;8368212;28;19921;-43
2022/11/01 08:04:04;;;;;;;;;;;18.70;53.40;;;;;;8368326;28;20087;-43
2022/11/01 08:08:05;;;;;;;;;;;18.70;53.40;;;;;;8368455;28;20347;-44
2022/11/01 08:12:06;;;;;;;;;;;18.70;53.40;;;;;;8367035;28;20365;-42
2022/11/01 08:16:06;;;;;;;;;;;18.60;53.40;;;;;;8368108;28;19913;-43
2022/11/01 08:20:07;;;;;;;;;;;18.70;53.40;;;;;;8368376;28;20007;-43
2022/11/01 08:24:07;;;;;;;;;;;18.70;53.40;;;;;;8367403;28;19917;-43
2022/11/01 08:28:12;;;;;;;;;;;18.70;53.40;;;;;;8367784;28;20000;-45
2022/11/01 08:32:13;;;;;;;;;;;18.70;53.40;;;;;;8367465;28;20391;-44
2022/11/01 08:36:14;;;;;;;;;;;18.70;53.40;;;;;;8367107;28;19913;-43
2022/11/01 08:40:14;;;;;;;;;;;18.70;53.40;;;;;;8367845;28;19960;-43
2022/11/01 08:44:16;;;;;;;;;;;18.70;53.50;;;;;;8367350;28;19921;-43
2022/11/01 08:48:17;;;;;;;;;;;18.70;53.40;;;;;;8366914;28;20365;-43
2022/11/01 08:52:17;;;;;;;;;;;18.70;53.50;;;;;;8367293;28;19996;-43
2022/11/01 08:56:19;;;;;;;;;;;18.70;53.50;;;;;;8366785;28;19913;-43
2022/11/01 09:00:20;;;;;;;;;;;18.70;53.40;;;;;;8366721;28;19921;-44
2022/11/01 09:04:20;;;;;;;;;;;18.70;53.40;;;;;;8366492;28;19921;-43
2022/11/01 09:08:21;;;;;;;;;;;18.70;53.40;;;;;;8366662;28;19917;-43
2022/11/01 09:12:21;;;;;;;;;;;18.70;53.50;;;;;;8366155;28;20364;-44
2022/11/01 09:16:22;;;;;;;;;;;18.70;53.50;;;;;;8366720;28;19913;-43
2022/11/01 09:20:23;;;;;;;;;;;18.80;53.60;;;;;;8366413;28;19927;-42
2022/11/01 09:24:24;;;;;;;;;;;18.80;53.50;;;;;;8365639;28;19996;-43
2022/11/01 09:28:24;;;;;;;;;;;18.70;54.00;;;;;;8366033;28;20293;-43
2022/11/01 09:32:28;;;;;;;;;;;18.80;53.60;;;;;;8365859;28;19925;-43
2022/11/01 09:36:29;;;;;;;;;;;18.80;53.60;;;;;;8365273;28;19957;-43
2022/11/01 09:40:32;;;;;;;;;;;18.80;53.50;;;;;;8365626;28;19990;-43
2022/11/01 09:44:35;;;;;;;;;;;18.90;53.50;;;;;;8364611;28;19999;-43
2022/11/01 09:48:36;;;;;;;;;;;18.90;53.50;;;;;;8364836;28;19920;-43
2022/11/01 09:52:39;;;;;;;;;;;18.80;53.40;;;;;;8365225;28;20339;-44
2022/11/01 09:56:41;;;;;;;;;;;18.90;53.50;;;;;;8365074;28;19958;-44
2022/11/01 10:00:45;;;;;;;;;;;18.90;53.50;;;;;;8364269;28;19928;-45
2022/11/01 10:04:57;;;;;;;;;;;18.90;53.40;;;;;;8364743;28;20343;-44
2022/11/01 10:09:23;;;;;;;;;;;19.00;53.40;;;;;;8364659;28;19932;-43
2022/11/01 10:13:39;;;;;;;;;;;19.00;53.50;;;;;;8331336;28;19924;-43
2022/11/01 10:17:50;;;;;;;;;;;19.00;53.40;;;;;;8331747;28;20059;-43
2022/11/01 10:21:53;;;;;;;;;;;19.00;53.50;;;;;;8331172;28;19975;-43
2022/11/01 10:25:53;;;;;;;;;;;19.00;53.40;;;;;;8331556;28;19917;-44
2022/11/01 10:29:57;;;;;;;;;;;19.00;53.40;;;;;;8331466;28;19923;-45
2022/11/01 10:34:01;;;;;;;;;;;19.00;53.40;;;;;;8363533;28;20395;-43
2022/11/01 10:38:02;;;;;;;;;;;19.00;53.40;;;;;;8364204;28;19952;-45
2022/11/01 10:42:07;;;;;;;;;;;19.00;53.40;;;;;;8363263;28;19924;-45
2022/11/01 10:46:09;;;;;;;;;;;19.00;53.40;;;;;;8363870;28;19962;-44
2022/11/01 10:50:10;;;;;;;;;;;19.00;53.40;;;;;;8363678;28;19917;-44
2022/11/01 10:54:15;;;;;;;;;;;19.00;53.40;;;;;;8362828;28;19913;-44
2022/11/01 10:58:33;;;;;;;;;;;19.00;53.40;;;;;;8363776;28;19920;-42
2022/11/01 11:02:37;;;;;;;;;;;19.00;53.50;;;;;;8363475;28;19921;-44
2022/11/01 11:06:38;;;;;;;;;;;19.00;53.40;;;;;;8361777;28;19955;-44
2022/11/01 11:10:41;;;;;;;;;;;19.10;53.50;;;;;;8363418;28;19917;-43
2022/11/01 11:14:42;;;;;;;;;;;19.10;53.50;;;;;;8363194;28;19917;-43
2022/11/01 11:18:58;;;;;;;;;;;19.00;53.50;;;;;;8362520;28;19987;-44
2022/11/01 11:23:00;;;;;;;;;;;19.10;53.50;;;;;;8363305;28;20386;-43
2022/11/01 11:27:02;;;;;;;;;;;19.10;53.50;;;;;;8362713;28;19917;-45
2022/11/01 11:31:22;;;;;;;;;;;19.10;53.50;;;;;;8363041;28;20389;-44
2022/11/01 11:35:26;;;;;;;;;;;19.10;53.50;;;;;;8363298;28;20003;-43
2022/11/01 11:39:28;;;;;;;;;;;19.10;53.40;;;;;;8362213;28;19928;-43
2022/11/01 11:43:30;;;;;;;;;;;19.10;53.40;;;;;;8363012;28;19939;-44
2022/11/01 11:47:34;;;;;;;;;;;19.10;53.50;;;;;;8362707;28;19995;-44
2022/11/01 11:51:39;;;;;;;;;;;19.10;53.40;;;;;;8362353;28;19931;-43
2022/11/01 11:55:53;;;;;;;;;;;19.20;53.50;;;;;;8362479;28;19924;-44
2022/11/01 11:59:56;;;;;;;;;;;19.10;53.40;;;;;;8362504;28;19921;-43
2022/11/01 12:03:58;;;;;;;;;;;19.10;53.40;;;;;;8361763;28;19943;-45
2022/11/01 12:07:59;;;;;;;;;;;19.10;53.40;;;;;;8367065;28;20415;-43
2022/11/01 12:12:07;;;;;;;;;;;19.10;53.40;;;;;;8368301;28;19913;-43
2022/11/01 12:16:14;;;;;;;;;;;19.20;53.40;;;;;;8368503;28;19917;-43
2022/11/01 12:20:17;;;;;;;;;;;19.20;53.40;;;;;;8373018;28;19924;-43
2022/11/01 12:24:23;;;;;;;;;;;19.20;53.40;;;;;;8367496;28;19931;-45
2022/11/01 12:28:23;;;;;;;;;;;19.20;53.40;;;;;;8368154;28;20059;-44
2022/11/01 12:32:37;;;;;;;;;;;19.20;53.30;;;;;;8367971;28;19912;-43
2022/11/01 12:36:42;;;;;;;;;;;19.20;53.40;;;;;;8367441;28;19924;-43
2022/11/01 12:40:44;;;;;;;;;;;19.20;53.40;;;;;;8367525;28;19924;-42
2022/11/01 12:44:47;;;;;;;;;;;19.20;53.40;;;;;;8367626;28;20329;-43
2022/11/01 12:48:54;;;;;;;;;;;19.30;53.40;;;;;;8366757;28;19917;-43
2022/11/01 12:52:58;;;;;;;;;;;19.20;53.40;;;;;;8367296;28;19913;-44
2022/11/01 12:56:58;;;;;;;;;;;19.20;53.30;;;;;;8366773;28;20377;-44
2022/11/01 13:01:16;;;;;;;;;;;19.30;53.40;;;;;;8366634;28;19928;-42
2022/11/01 13:05:46;;;;;;;;;;;19.30;53.40;;;;;;8366450;28;19991;-43
2022/11/01 13:10:07;;;;;;;;;;;19.30;53.40;;;;;;8346409;28;19924;-42
2022/11/01 13:14:30;;;;;;;;;;;19.30;53.30;;;;;;8366475;28;19917;-45
2022/11/01 13:18:34;;;;;;;;;;;19.30;53.40;;;;;;8365724;28;19920;-45
2022/11/01 13:22:43;;;;;;;;;;;19.30;53.40;;;;;;8366438;28;19921;-43
2022/11/01 13:26:50;;;;;;;;;;;19.30;53.40;;;;;;8365946;28;19963;-44
2022/11/01 13:31:02;;;;;;;;;;;19.30;53.40;;;;;;8365335;28;19944;-46
2022/11/01 13:35:12;;;;;;;;;;;19.20;53.40;;;;;;8365776;28;19940;-43
2022/11/01 13:39:36;;;;;;;;;;;19.30;53.30;;;;;;8365267;28;19971;-43
2022/11/01 13:43:42;;;;;;;;;;;19.30;53.30;;;;;;8365447;28;19956;-45
2022/11/01 13:47:48;;;;;;;;;;;19.30;53.30;;;;;;8365786;28;19939;-44
2022/11/01 13:52:09;;;;;;;;;;;19.30;53.30;;;;;;8364771;28;19924;-43
2022/11/01 13:56:27;;;;;;;;;;;19.30;53.30;;;;;;8365015;28;20424;-45
2022/11/01 14:00:41;;;;;;;;;;;19.30;53.30;;;;;;8364282;28;19925;-43
2022/11/01 14:04:53;;;;;;;;;;;19.30;53.30;;;;;;8364650;28;19961;-44
2022/11/01 14:09:16;;;;;;;;;;;19.30;53.30;;;;;;8363554;28;19917;-42
2022/11/01 14:13:27;;;;;;;;;;;19.30;53.30;;;;;;8364629;28;19913;-43
2022/11/01 14:17:28;;;;;;;;;;;19.30;53.30;;;;;;8364761;28;19916;-44
2022/11/01 14:21:30;;;;;;;;;;;19.30;53.30;;;;;;8363017;28;20339;-43
2022/11/01 14:25:31;;;;;;;;;;;19.30;53.30;;;;;;8345605;28;20004;-45
2022/11/01 14:29:35;;;;;;;;;;;19.30;53.30;;;;;;8331037;28;20004;-43
2022/11/01 14:33:35;;;;;;;;;;;19.30;53.30;;;;;;8330490;28;20175;-43
2022/11/01 14:37:41;;;;;;;;;;;19.40;53.30;;;;;;8331188;28;19924;-43
2022/11/01 14:41:43;;;;;;;;;;;19.30;53.30;;;;;;8330723;28;19960;-43
2022/11/01 14:45:45;;;;;;;;;;;19.30;53.30;;;;;;8330244;28;19917;-45
2022/11/01 14:49:47;;;;;;;;;;;19.30;53.30;;;;;;8330660;28;19975;-44
2022/11/01 14:53:51;;;;;;;;;;;19.30;53.30;;;;;;8330449;28;20400;-42
2022/11/01 14:58:08;;;;;;;;;;;19.30;53.30;;;;;;8330250;28;19913;-45
2022/11/01 15:02:09;;;;;;;;;;;19.40;53.30;;;;;;8330414;28;20009;-44
2022/11/01 15:06:22;;;;;;;;;;;19.30;53.30;;;;;;8329694;28;19921;-42
2022/11/01 15:10:23;;;;;;;;;;;19.40;53.30;;;;;;8329013;28;19917;-42
2022/11/01 15:14:30;;;;;;;;;;;19.40;53.30;;;;;;8330249;28;19917;-42
2022/11/01 15:18:30;;;;;;;;;;;19.40;53.40;;;;;;8329882;28;19914;-43
2022/11/01 15:22:32;;;;;;;;;;;19.40;53.30;;;;;;8330240;28;20009;-42
2022/11/01 15:26:32;;;;;;;;;;;19.40;53.30;;;;;;8329936;28;20010;-42
2022/11/01 15:30:33;;;;;;;;;;;19.40;53.30;;;;;;8329860;28;20274;-45
2022/11/01 15:34:35;;;;;;;;;;;19.30;53.30;;;;;;8330202;28;20055;-44
2022/11/01 15:38:48;;;;;;;;;;;19.40;53.30;;;;;;8330299;28;19917;-46
2022/11/01 15:42:54;;;;;;;;;;;19.40;53.30;;;;;;8334542;28;19925;-44
2022/11/01 15:46:59;;;;;;;;;;;19.40;53.30;;;;;;8361884;28;19917;-43
2022/11/01 15:51:01;;;;;;;;;;;19.40;53.30;;;;;;8368659;28;20450;-43
2022/11/01 15:55:14;;;;;;;;;;;19.40;53.30;;;;;;8372933;28;19916;-43
2022/11/01 15:59:17;;;;;;;;;;;19.40;53.30;;;;;;8343349;28;19936;-44
2022/11/01 16:03:18;;;;;;;;;;;19.40;53.30;;;;;;8368347;28;19920;-43
2022/11/01 16:07:19;;;;;;;;;;;19.30;53.30;;;;;;8368504;28;19916;-44
2022/11/01 16:11:21;;;;;;;;;;;19.30;53.30;;;;;;8368459;28;19917;-45
2022/11/01 16:15:26;;;;;;;;;;;19.30;53.30;;;;;;8367775;28;19924;-44
2022/11/01 16:19:38;;;;;;;;;;;19.40;53.40;;;;;;8368629;28;20361;-43
2022/11/01 16:23:47;;;;;;;;;;;19.40;53.40;;;;;;8368196;28;19913;-43
2022/11/01 16:28:07;;;;;;;;;;;19.40;53.40;;;;;;8367432;28;19923;-44
2022/11/01 16:32:18;;;;;;;;;;;19.40;53.40;;;;;;8367682;28;20016;-43
2022/11/01 16:36:19;;;;;;;;;;;19.30;53.30;;;;;;8366035;28;19921;-43
2022/11/01 16:40:21;;;;;;;;;;;19.40;53.30;;;;;;8367441;28;19931;-44
2022/11/01 16:44:22;;;;;;;;;;;19.30;53.30;;;;;;8367420;28;19920;-44
2022/11/01 16:48:24;;;;;;;;;;;19.40;53.40;;;;;;8367082;28;19913;-44
2022/11/01 16:52:24;;;;;;;;;;;19.30;53.30;;;;;;8366872;28;19917;-41
2022/11/01 16:56:27;;;;;;;;;;;19.30;53.30;;;;;;8366987;28;19940;-45
2022/11/01 17:00:27;;;;;;;;;;;19.30;53.30;;;;;;8366225;28;19971;-43
2022/11/01 17:04:28;;;;;;;;;;;19.30;53.30;;;;;;8347810;28;19924;-45
2022/11/01 17:08:28;;;;;;;;;;;19.30;53.30;;;;;;8367025;28;19948;-43
2022/11/01 17:12:29;;;;;;;;;;;19.30;53.30;;;;;;8366070;28;19917;-43
2022/11/01 17:16:29;;;;;;;;;;;19.30;53.30;;;;;;8366524;28;19917;-42
2022/11/01 17:20:30;;;;;;;;;;;19.30;53.30;;;;;;8366388;28;19921;-43
2022/11/01 17:24:32;;;;;;;;;;;19.30;53.30;;;;;;8365788;28;19952;-42
2022/11/01 17:28:32;;;;;;;;;;;19.40;53.30;;;;;;8366563;28;19978;-43
2022/11/01 17:32:33;;;;;;;;;;;19.30;53.30;;;;;;8366006;28;19916;-43
2022/11/01 17:36:35;;;;;;;;;;;19.30;53.30;;;;;;8365313;28;19924;-42
2022/11/01 17:40:35;;;;;;;;;;;19.30;53.30;;;;;;8365910;28;20301;-42
2022/11/01 17:44:36;;;;;;;;;;;19.40;53.30;;;;;;8365905;28;20011;-43
2022/11/01 17:48:36;;;;;;;;;;;19.40;53.30;;;;;;8365074;28;20011;-41
2022/11/01 17:52:37;;;;;;;;;;;19.30;53.30;;;;;;8365228;28;19963;-43
2022/11/01 17:56:37;;;;;;;;;;;19.30;53.30;;;;;;8365083;28;19917;-43
2022/11/01 18:00:39;;;;;;;;;;;19.30;53.30;;;;;;8364457;28;19994;-43
2022/11/01 18:04:39;;;;;;;;;;;19.30;53.30;;;;;;8364300;28;19921;-43
2022/11/01 18:08:44;;;;;;;;;;;19.30;53.30;;;;;;8364843;28;19917;-43
2022/11/01 18:13:03;;;;;;;;;;;19.30;53.30;;;;;;8364311;28;19923;-42
2022/11/01 18:17:14;;;;;;;;;;;19.30;53.30;;;;;;8364519;28;19924;-43
2022/11/01 18:21:37;;;;;;;;;;;19.30;53.30;;;;;;8364025;28;19924;-42
2022/11/01 18:25:42;;;;;;;;;;;19.30;53.30;;;;;;8364709;28;19917;-42
2022/11/01 18:29:45;;;;;;;;;;;19.30;53.30;;;;;;8364273;28;19913;-42
2022/11/01 18:33:54;;;;;;;;;;;19.30;53.30;;;;;;8363586;28;19924;-43
2022/11/01 18:38:07;;;;;;;;;;;19.30;53.30;;;;;;8364252;28;19955;-42
2022/11/01 18:42:08;;;;;;;;;;;19.30;53.30;;;;;;8363373;28;20274;-43
2022/11/01 18:46:13;;;;;;;;;;;19.30;53.30;;;;;;8363884;28;20312;-42
2022/11/01 18:50:18;;;;;;;;;;;19.30;53.30;;;;;;8363868;28;20327;-43
2022/11/01 18:54:23;;;;;;;;;;;19.30;53.20;;;;;;8363491;28;19921;-43
2022/11/01 18:58:28;;;;;;;;;;;19.30;53.20;;;;;;8363775;28;19992;-42
2022/11/01 19:02:29;;;;;;;;;;;19.30;53.20;;;;;;8363309;28;20043;-43
2022/11/01 19:06:30;;;;;;;;;;;19.30;53.10;;;;;;8362687;28;19921;-41
2022/11/01 19:10:34;;;;;;;;;;;19.30;53.10;;;;;;8363528;28;19948;-42
2022/11/01 19:14:34;;;;;;;;;;;19.30;53.10;;;;;;8364604;28;20004;-43
2022/11/01 19:18:36;;;;;;;;;;;19.30;53.10;;;;;;8369622;28;19923;-42
2022/11/01 19:22:40;;;;;;;;;;;19.20;53.10;;;;;;8369776;28;19928;-43
2022/11/01 19:26:41;;;;;;;;;;;19.20;53.10;;;;;;8369967;28;19940;-43
2022/11/01 19:30:45;;;;;;;;;;;19.20;53.10;;;;;;8369308;28;19927;-45
2022/11/01 19:34:47;;;;;;;;;;;19.30;53.20;;;;;;8369976;28;20419;-43
2022/11/01 19:38:48;;;;;;;;;;;19.20;53.20;;;;;;8369578;28;19921;-43
2022/11/01 19:42:48;;;;;;;;;;;19.20;53.10;;;;;;8368862;28;20416;-42
2022/11/01 19:46:51;;;;;;;;;;;19.20;53.10;;;;;;8369041;28;20054;-43
2022/11/01 19:50:52;;;;;;;;;;;19.20;53.10;;;;;;8369273;28;20360;-43
2022/11/01 19:54:53;;;;;;;;;;;19.20;53.10;;;;;;8368768;28;19912;-43
2022/11/01 19:59:02;;;;;;;;;;;19.20;53.10;;;;;;8368770;28;19917;-43
2022/11/01 20:03:04;;;;;;;;;;;19.20;53.10;;;;;;8367221;28;20380;-43
2022/11/01 20:07:11;;;;;;;;;;;19.20;53.10;;;;;;8368439;28;19979;-44
2022/11/01 20:11:12;;;;;;;;;;;19.20;53.10;;;;;;8368403;28;20340;-43
2022/11/01 20:15:12;;;;;;;;;;;19.20;53.00;;;;;;8368167;28;20284;-43
2022/11/01 20:19:13;;;;;;;;;;;19.20;53.00;;;;;;8368334;28;19924;-43
2022/11/01 20:23:13;;;;;;;;;;;19.20;53.00;;;;;;8368049;28;19928;-43
2022/11/01 20:27:14;;;;;;;;;;;19.20;53.00;;;;;;8366702;28;19971;-42
2022/11/01 20:31:15;;;;;;;;;;;19.20;53.00;;;;;;8368273;28;20281;-43
2022/11/01 20:35:15;;;;;;;;;;;19.20;53.00;;;;;;8366758;28;19921;-43
2022/11/01 20:39:16;;;;;;;;;;;19.20;53.00;;;;;;8367193;28;19920;-44
2022/11/01 20:43:16;;;;;;;;;;;19.20;53.00;;;;;;8367854;28;19921;-43
2022/11/01 20:47:17;;;;;;;;;;;19.20;53.00;;;;;;8367456;28;19913;-43
2022/11/01 20:51:17;;;;;;;;;;;19.20;53.00;;;;;;8366925;28;19917;-43
2022/11/01 20:55:17;;;;;;;;;;;19.20;53.10;;;;;;8367751;28;19912;-44
2022/11/01 20:59:18;;;;;;;;;;;19.20;53.10;;;;;;8367133;28;19917;-43
2022/11/01 21:03:20;;;;;;;;;;;19.20;53.00;;;;;;8366678;28;20353;-43
2022/11/01 21:07:20;;;;;;;;;;;19.20;53.00;;;;;;8366826;28;19921;-45
2022/11/01 21:11:42;;;;;;;;;;;19.20;53.00;;;;;;8366696;28;20373;-43
2022/11/01 21:15:43;;;;;;;;;;;19.20;53.00;;;;;;8365063;28;19912;-42
2022/11/01 21:19:47;;;;;;;;;;;19.20;53.00;;;;;;8366389;28;20332;-43
2022/11/01 21:23:48;;;;;;;;;;;19.20;53.00;;;;;;8366577;28;19928;-44
2022/11/01 21:27:49;;;;;;;;;;;19.20;53.00;;;;;;8365883;28;20321;-42
2022/11/01 21:31:49;;;;;;;;;;;19.20;53.50;;;;;;8366319;28;20365;-42
2022/11/01 21:35:50;;;;;;;;;;;19.20;53.00;;;;;;8366062;28;20250;-43
2022/11/01 21:39:53;;;;;;;;;;;19.10;52.90;;;;;;8365232;28;19967;-42
2022/11/01 21:43:57;;;;;;;;;;;19.20;52.90;;;;;;8365980;28;19920;-42
2022/11/01 21:48:15;;;;;;;;;;;19.20;53.00;;;;;;8365544;28;20273;-43
2022/11/01 21:52:18;;;;;;;;;;;19.20;53.00;;;;;;8343015;28;20373;-43
2022/11/01 21:56:18;;;;;;;;;;;19.20;52.90;;;;;;8365354;28;19920;-44
2022/11/01 22:00:19;;;;;;;;;;;19.20;52.90;;;;;;8397144;28;19921;-43
2022/11/01 22:04:19;;;;;;;;;;;19.20;52.90;;;;;;8365168;28;19928;-43
2022/11/01 22:08:20;;;;;;;;;;;19.20;52.90;;;;;;8364945;28;19917;-43
2022/11/01 22:12:20;;;;;;;;;;;19.20;52.90;;;;;;8364255;28;19940;-44
2022/11/01 22:16:21;;;;;;;;;;;19.20;52.90;;;;;;8397157;28;20387;-42
2022/11/01 22:20:21;;;;;;;;;;;19.20;52.90;;;;;;8364401;28;20369;-42
2022/11/01 22:24:22;;;;;;;;;;;19.20;52.90;;;;;;8364003;28;20284;-43
2022/11/01 22:28:23;;;;;;;;;;;19.20;52.90;;;;;;8364212;28;19924;-43
2022/11/01 22:32:23;;;;;;;;;;;19.20;52.90;;;;;;8364293;28;19996;-42
2022/11/01 22:36:28;;;;;;;;;;;19.20;52.80;;;;;;8363708;28;19920;-43
2022/11/01 22:40:29;;;;;;;;;;;19.20;52.80;;;;;;8363787;28;20011;-43
2022/11/01 22:44:31;;;;;;;;;;;19.10;53.30;;;;;;8363588;28;19921;-42
2022/11/01 22:48:31;;;;;;;;;;;19.20;52.80;;;;;;8363088;28;19956;-42
2022/11/01 22:52:58;;;;;;;;;;;19.10;52.80;;;;;;8363668;28;20377;-43
2022/11/01 22:56:59;;;;;;;;;;;19.10;52.70;;;;;;8361722;28;20003;-42
2022/11/01 23:01:00;;;;;;;;;;;19.10;52.70;;;;;;8362916;28;19944;-42
2022/11/01 23:05:07;;;;;;;;;;;19.10;52.70;;;;;;8344340;28;19925;-43
2022/11/01 23:09:11;;;;;;;;;;;19.10;52.70;;;;;;8349504;28;19917;-43
2022/11/01 23:17:44;;;;;;;;;;;19.10;52.70;;;;;;8363421;28;19923;-43
2022/11/01 23:21:44;;;;;;;;;;;19.10;52.70;;;;;;8362710;28;19921;-43
2022/11/01 23:25:45;;;;;;;;;;;19.10;52.70;;;;;;8363048;28;19966;-43
2022/11/01 23:29:48;;;;;;;;;;;19.10;52.70;;;;;;8362949;28;19924;-42
2022/11/01 23:33:49;;;;;;;;;;;19.10;52.80;;;;;;8362512;28;20377;-42
2022/11/01 23:37:50;;;;;;;;;;;19.10;52.70;;;;;;8363063;28;19917;-42
2022/11/01 23:41:51;;;;;;;;;;;19.00;52.70;;;;;;8363058;28;19921;-43
2022/11/01 23:45:52;;;;;;;;;;;19.00;52.70;;;;;;8362259;28;19917;-43
2022/11/01 23:49:56;;;;;;;;;;;19.00;52.70;;;;;;8362663;28;19917;-43